Terminal Aerodrome Forecast
Issued by NWS Grand Forks, ND

Home | Current Version | Previous Version | Text Only | Print | Product List | Glossary On
Versions: 1 2 3 4 5 6 7 8 9 10 11 12 13 14
493
FTUS43 KFGF 240520
TAFGFK
TAF
KGFK 240520Z 2406/2506 33012KT P6SM FEW090 SCT250
     FM240800 31003KT P6SM SCT250
     FM241000 29002KT P6SM SCT100 BKN250
     FM241600 19006KT P6SM SCT250=

USA.gov is the U.S. government's official web portal to all federal, state and local government web resources and services.